Time;durP1;ratioP1;P1;durP2;ratioP2;P2;SDS_P1;SDS_P2;PMS_P1;PMS_P2;Temp;Humidity;BMP_temperature;BMP_pressure;BME280_temperature;BME280_humidity;BME280_pressure;Samples;Min_cycle;Max_cycle;Signal;HPM_P1;HPM_P2
2023/05/11 00:00:08;;;;;;;2.10;2.00;;;13.70;93.80;;;;;;5014153;28;20654;-88
2023/05/11 00:02:58;;;;;;;2.00;1.90;;;13.60;94.10;;;;;;5015212;28;20204;-89
2023/05/11 00:06:16;;;;;;;2.00;1.90;;;13.50;95.40;;;;;;5016016;28;20197;-89
2023/05/11 00:08:48;;;;;;;3.07;2.33;;;13.50;95.50;;;;;;5002524;28;20207;-88
2023/05/11 00:12:00;;;;;;;2.97;2.30;;;13.50;95.10;;;;;;4998831;28;20183;-89
2023/05/11 00:14:32;;;;;;;2.40;2.20;;;13.50;95.60;;;;;;4993555;28;20178;-89
2023/05/11 00:17:00;;;;;;;2.10;2.00;;;13.40;95.90;;;;;;4993260;28;20177;-88
2023/05/11 00:19:30;;;;;;;2.90;2.10;;;13.40;95.20;;;;;;4995158;28;20185;-89
2023/05/11 00:21:58;;;;;;;2.23;2.03;;;13.50;95.60;;;;;;5011915;28;20769;-88
2023/05/11 00:27:38;;;;;;;2.20;2.10;;;13.50;95.00;;;;;;4991919;28;20231;-88
2023/05/11 00:30:22;;;;;;;2.00;1.90;;;13.60;94.00;;;;;;5015061;28;20205;-88
2023/05/11 00:33:00;;;;;;;3.23;2.00;;;13.60;93.80;;;;;;5015075;28;20195;-87
2023/05/11 00:35:44;;;;;;;2.40;2.20;;;13.50;94.60;;;;;;5021321;28;20196;-88
2023/05/11 00:38:39;;;;;;;2.33;2.00;;;13.50;94.30;;;;;;5020632;28;20210;-87
2023/05/11 00:41:05;;;;;;;2.10;2.00;;;13.50;93.80;;;;;;5013553;28;20848;-89
2023/05/11 00:46:47;;;;;;;3.93;2.10;;;13.40;94.70;;;;;;5009859;28;20275;-87
2023/05/11 00:49:49;;;;;;;1.80;1.70;;;13.40;94.60;;;;;;5005132;28;20364;-87
2023/05/11 00:52:15;;;;;;;1.90;1.80;;;13.40;94.30;;;;;;5001933;28;20223;-88
2023/05/11 00:54:41;;;;;;;2.60;1.70;;;13.40;94.20;;;;;;5010772;28;20337;-88
2023/05/11 00:57:22;;;;;;;2.40;1.87;;;13.30;94.70;;;;;;5016630;28;20192;-88
2023/05/11 00:59:51;;;;;;;2.00;1.90;;;13.40;94.80;;;;;;5019109;28;20262;-89
2023/05/11 01:03:06;;;;;;;3.30;1.90;;;13.40;93.70;;;;;;5016946;28;20181;-88
2023/05/11 01:06:18;;;;;;;1.80;1.70;;;13.40;93.30;;;;;;5015698;28;20222;-88
2023/05/11 01:09:03;;;;;;;2.80;1.80;;;13.40;94.10;;;;;;5015795;28;20203;-88
2023/05/11 01:15:11;;;;;;;1.90;1.80;;;13.50;93.70;;;;;;4994439;28;20200;-89
2023/05/11 01:18:38;;;;;;;1.90;1.80;;;13.50;93.50;;;;;;5019562;28;20205;-88
2023/05/11 01:21:17;;;;;;;1.70;1.60;;;13.60;93.10;;;;;;5006342;28;20235;-88
2023/05/11 01:24:19;;;;;;;2.33;2.00;;;13.50;93.10;;;;;;5019849;28;20192;-87
2023/05/11 01:27:42;;;;;;;1.67;1.57;;;13.60;92.70;;;;;;5017681;28;20298;-89
2023/05/11 01:30:58;;;;;;;1.87;1.77;;;13.50;93.10;;;;;;4996310;28;20678;-88
2023/05/11 01:33:37;;;;;;;2.00;1.90;;;13.60;92.40;;;;;;5018586;28;20173;-88
2023/05/11 01:36:18;;;;;;;1.97;1.87;;;13.60;92.20;;;;;;5017392;28;20199;-88
2023/05/11 01:39:08;;;;;;;2.00;1.90;;;13.60;92.20;;;;;;5017735;28;20233;-89
2023/05/11 01:41:40;;;;;;;1.90;1.80;;;13.50;92.90;;;;;;5017474;28;20208;-87
2023/05/11 01:44:30;;;;;;;2.50;2.03;;;13.60;92.60;;;;;;5006767;28;20209;-88
2023/05/11 01:50:32;;;;;;;2.13;2.00;;;13.50;92.50;;;;;;5000156;28;20255;-88
2023/05/11 01:53:02;;;;;;;2.43;2.03;;;13.50;93.50;;;;;;5015969;28;20674;-88
2023/05/11 01:56:13;;;;;;;1.90;1.80;;;13.40;93.90;;;;;;5033278;28;20211;-88
2023/05/11 01:58:40;;;;;;;3.43;2.03;;;13.20;95.30;;;;;;5036057;28;20304;-88
2023/05/11 02:01:22;;;;;;;2.17;2.00;;;13.00;96.10;;;;;;5035437;28;20193;-89
2023/05/11 02:04:12;;;;;;;2.00;1.80;;;13.00;96.90;;;;;;5010364;28;20197;-88
2023/05/11 02:06:52;;;;;;;2.00;1.90;;;12.90;98.40;;;;;;4997677;28;20681;-88
2023/05/11 02:09:28;;;;;;;1.97;1.87;;;12.90;98.40;;;;;;4997885;28;20170;-88
2023/05/11 02:12:24;;;;;;;1.90;1.80;;;12.90;98.60;;;;;;5001449;28;20173;-88
2023/05/11 02:15:04;;;;;;;;;;;;;;;;;;;;;
2023/05/11 02:17:32;;;;;;;2.43;1.93;;;12.90;98.40;;;;;;4994402;28;20295;-88
2023/05/11 02:20:09;;;;;;;2.20;1.90;;;12.90;98.20;;;;;;4999839;28;20193;-87
2023/05/11 02:22:44;;;;;;;1.90;1.80;;;13.00;96.80;;;;;;4996029;28;20192;-88
2023/05/11 02:25:18;;;;;;;1.77;1.67;;;13.00;97.00;;;;;;4999307;28;20219;-88
2023/05/11 02:27:53;;;;;;;2.33;1.90;;;13.00;96.60;;;;;;4996718;28;20207;-88
2023/05/11 02:30:36;;;;;;;2.20;2.10;;;13.10;96.90;;;;;;4996597;28;20244;-89
2023/05/11 02:33:09;;;;;;;2.20;2.00;;;13.00;96.80;;;;;;4997673;28;20192;-88
2023/05/11 02:35:45;;;;;;;2.37;2.20;;;12.90;98.30;;;;;;4997379;28;20198;-87
2023/05/11 02:38:16;;;;;;;2.20;2.00;;;12.90;97.60;;;;;;4995140;28;20207;-88
2023/05/11 02:40:56;;;;;;;4.13;2.17;;;12.90;98.10;;;;;;4994551;28;20190;-88
2023/05/11 02:43:41;;;;;;;4.70;2.00;;;12.80;97.90;;;;;;4993661;28;20192;-87
2023/05/11 02:46:22;;;;;;;2.50;2.10;;;12.70;98.90;;;;;;5005143;28;20218;-88
2023/05/11 02:48:56;;;;;;;2.00;1.90;;;12.80;99.20;;;;;;5015774;28;20273;-89
2023/05/11 02:54:48;;;;;;;2.10;2.00;;;12.80;98.40;;;;;;4998225;28;20198;-89
2023/05/11 02:57:49;;;;;;;2.00;1.90;;;12.80;99.20;;;;;;4997213;28;20282;-88
2023/05/11 03:00:21;;;;;;;2.43;2.00;;;12.90;98.60;;;;;;4995806;28;20243;-88
2023/05/11 03:03:11;;;;;;;3.40;2.23;;;12.90;97.80;;;;;;5002014;28;20196;-88
2023/05/11 03:05:38;;;;;;;2.30;2.10;;;12.80;98.10;;;;;;5013049;28;20361;-88
2023/05/11 03:08:04;;;;;;;2.10;2.00;;;12.80;98.90;;;;;;5014354;28;20203;-88
2023/05/11 03:10:30;;;;;;;3.03;2.10;;;12.70;98.90;;;;;;5010501;28;20203;-88
2023/05/11 03:13:01;;;;;;;2.37;2.27;;;12.80;99.20;;;;;;4996889;28;20171;-88
2023/05/11 03:15:30;;;;;;;2.30;2.20;;;12.80;98.50;;;;;;5003179;28;20192;-87
2023/05/11 03:18:03;;;;;;;2.20;2.10;;;12.80;99.20;;;;;;5015256;28;20678;-87
2023/05/11 03:20:50;;;;;;;2.47;2.33;;;12.80;98.80;;;;;;5014324;28;20214;-88
2023/05/11 03:23:23;;;;;;;2.47;2.20;;;12.80;98.80;;;;;;5016324;28;20200;-86
2023/05/11 03:25:59;;;;;;;2.83;2.03;;;12.70;99.10;;;;;;5015097;28;20264;-88
2023/05/11 03:28:51;;;;;;;2.80;2.37;;;12.60;99.90;;;;;;5015478;28;20226;-87
2023/05/11 03:31:25;;;;;;;4.30;2.50;;;12.60;99.90;;;;;;5012288;28;20214;-88
2023/05/11 03:34:08;;;;;;;2.70;2.50;;;12.60;99.90;;;;;;5015996;28;20177;-88
2023/05/11 03:36:49;;;;;;;3.83;2.70;;;12.60;99.70;;;;;;5014682;28;20162;-88
2023/05/11 03:40:00;;;;;;;3.10;2.50;;;12.80;98.50;;;;;;5013270;28;20311;-87
2023/05/11 03:43:04;;;;;;;;;;;;;;;;;;;;;
2023/05/11 03:46:19;;;;;;;2.40;2.20;;;12.70;98.80;;;;;;4998552;28;20287;-89
2023/05/11 03:48:54;;;;;;;7.00;2.67;;;12.50;99.90;;;;;;4994082;28;20221;-89
2023/05/11 03:51:22;;;;;;;2.50;2.30;;;12.40;99.90;;;;;;4997788;28;20192;-88
2023/05/11 03:53:51;;;;;;;3.03;2.53;;;12.40;99.90;;;;;;5018777;28;20918;-89
2023/05/11 03:56:43;;;;;;;3.10;2.80;;;12.50;99.90;;;;;;5018560;28;20193;-90
2023/05/11 03:59:18;;;;;;;3.53;2.60;;;12.50;99.90;;;;;;5020009;28;20206;-90
2023/05/11 04:01:52;;;;;;;2.67;2.43;;;12.50;99.90;;;;;;5003179;28;20209;-89
2023/05/11 04:04:18;;;;;;;2.90;2.70;;;12.40;99.90;;;;;;4994373;28;20214;-88
2023/05/11 04:06:46;;;;;;;2.77;2.57;;;12.40;99.90;;;;;;5008011;28;20228;-88
2023/05/11 04:09:17;;;;;;;3.07;2.77;;;12.30;99.90;;;;;;4993014;28;20623;-89
2023/05/11 04:11:43;;;;;;;3.53;2.90;;;12.30;99.90;;;;;;5002526;28;20628;-89
2023/05/11 04:14:12;;;;;;;3.00;2.80;;;12.30;99.90;;;;;;5014609;28;20252;-88
2023/05/11 04:16:47;;;;;;;3.00;2.80;;;12.30;99.90;;;;;;5013405;28;20183;-88
2023/05/11 04:19:14;;;;;;;3.10;2.90;;;12.40;99.90;;;;;;5014462;28;20266;-88
2023/05/11 04:21:46;;;;;;;3.30;3.00;;;12.50;99.90;;;;;;5013346;28;20205;-88
2023/05/11 04:24:14;;;;;;;4.00;3.43;;;12.30;99.90;;;;;;5007458;28;20187;-87
2023/05/11 04:26:43;;;;;;;3.10;2.87;;;12.30;99.90;;;;;;4995998;28;20202;-89
2023/05/11 04:29:29;;;;;;;3.30;3.00;;;12.20;99.90;;;;;;5009937;28;20202;-87
2023/05/11 04:31:55;;;;;;;4.30;3.40;;;12.20;99.90;;;;;;5004808;28;20202;-87
2023/05/11 04:34:30;;;;;;;4.17;3.03;;;12.20;99.90;;;;;;5010434;28;20205;-88
2023/05/11 04:37:08;;;;;;;3.43;3.13;;;12.10;99.90;;;;;;5003172;28;20219;-88
2023/05/11 04:40:09;;;;;;;3.60;3.30;;;12.00;99.90;;;;;;5012609;28;20193;-88
2023/05/11 04:42:38;;;;;;;3.43;3.13;;;12.10;99.90;;;;;;5011724;28;20839;-89
2023/05/11 04:45:14;;;;;;;4.30;3.60;;;12.20;99.90;;;;;;5009034;28;20178;-89
2023/05/11 04:48:08;;;;;;;4.73;3.20;;;12.20;99.90;;;;;;5016072;28;20216;-88
2023/05/11 04:50:35;;;;;;;3.83;3.40;;;12.20;99.90;;;;;;5012310;28;20247;-89
2023/05/11 04:53:01;;;;;;;3.70;3.40;;;12.10;99.90;;;;;;5012392;28;20199;-89
2023/05/11 04:55:33;;;;;;;5.17;3.30;;;12.10;99.90;;;;;;5009220;28;20685;-89
2023/05/11 04:58:19;;;;;;;3.43;3.20;;;12.00;99.90;;;;;;5000262;28;20224;-87
2023/05/11 05:00:47;;;;;;;4.33;3.57;;;12.00;99.90;;;;;;4994255;28;20178;-87
2023/05/11 05:03:14;;;;;;;3.47;3.17;;;12.00;99.90;;;;;;4993917;28;20178;-86
2023/05/11 05:05:39;;;;;;;4.47;2.90;;;12.00;99.90;;;;;;4995182;28;20244;-89
2023/05/11 05:08:06;;;;;;;4.07;3.00;;;12.10;99.90;;;;;;4994403;28;20217;-87
2023/05/11 05:10:40;;;;;;;6.77;3.90;;;12.30;99.90;;;;;;4996091;28;20178;-86
2023/05/11 05:13:06;;;;;;;3.37;3.07;;;12.20;99.90;;;;;;4995051;28;20188;-88
2023/05/11 05:15:35;;;;;;;3.57;3.23;;;12.20;99.90;;;;;;5004780;28;20557;-89
2023/05/11 05:18:00;;;;;;;4.17;3.30;;;12.20;99.90;;;;;;5016358;28;20209;-88
2023/05/11 05:20:33;;;;;;;4.13;3.60;;;12.20;99.90;;;;;;5017314;28;20178;-87
2023/05/11 05:23:03;;;;;;;4.13;3.73;;;12.10;99.90;;;;;;5019847;28;20185;-87
2023/05/11 05:25:35;;;;;;;4.13;3.53;;;12.20;99.90;;;;;;5009685;28;20208;-87
2023/05/11 05:28:10;;;;;;;3.77;3.10;;;12.20;99.90;;;;;;5017002;28;20216;-87
2023/05/11 05:30:36;;;;;;;3.30;3.10;;;12.10;99.90;;;;;;5018447;28;20181;-89
2023/05/11 05:33:08;;;;;;;4.13;3.53;;;12.00;99.90;;;;;;5015479;28;20184;-88
2023/05/11 05:35:37;;;;;;;3.60;3.40;;;12.00;99.90;;;;;;4997695;28;20212;-88
2023/05/11 05:38:14;;;;;;;6.93;3.50;;;11.90;99.90;;;;;;5013084;28;20297;-88
2023/05/11 05:40:49;;;;;;;3.70;3.40;;;11.90;99.90;;;;;;5017792;28;20177;-88
2023/05/11 05:43:27;;;;;;;3.97;3.37;;;11.90;99.90;;;;;;5015030;28;20176;-87
2023/05/11 05:45:53;;;;;;;3.93;3.50;;;11.90;99.90;;;;;;4995756;28;20218;-87
2023/05/11 05:48:19;;;;;;;7.33;3.50;;;12.00;99.90;;;;;;5026947;23;20235;-89
2023/05/11 05:50:45;;;;;;;3.50;3.20;;;12.00;99.90;;;;;;5033967;28;20206;-88
2023/05/11 05:53:11;;;;;;;5.80;3.50;;;11.90;99.90;;;;;;5035527;28;20194;-86
2023/05/11 05:55:37;;;;;;;4.70;3.77;;;11.90;99.90;;;;;;5017472;28;20192;-88
2023/05/11 05:58:05;;;;;;;4.00;3.63;;;12.00;99.90;;;;;;5025422;28;20707;-88
2023/05/11 06:00:30;;;;;;;3.93;3.50;;;12.00;99.90;;;;;;5015771;28;20235;-87
2023/05/11 06:02:56;;;;;;;5.23;4.10;;;12.10;99.90;;;;;;4998558;28;20192;-88
2023/05/11 06:05:22;;;;;;;4.37;4.00;;;12.00;99.90;;;;;;5016185;28;20244;-88
2023/05/11 06:07:50;;;;;;;4.10;3.70;;;12.20;99.90;;;;;;5016246;28;20197;-89
2023/05/11 06:10:16;;;;;;;3.80;3.50;;;12.30;99.90;;;;;;5016565;28;20181;-88
2023/05/11 06:12:42;;;;;;;4.60;3.60;;;12.20;99.90;;;;;;5022346;28;20215;-89
2023/05/11 06:15:08;;;;;;;4.87;3.83;;;12.20;99.90;;;;;;5034103;28;20244;-88
2023/05/11 06:17:34;;;;;;;3.93;3.63;;;12.10;99.90;;;;;;5034387;28;20211;-89
2023/05/11 06:19:59;;;;;;;4.07;3.53;;;12.30;99.90;;;;;;5029208;28;20182;-88
2023/05/11 06:22:25;;;;;;;3.70;3.40;;;12.20;99.90;;;;;;5016849;28;20189;-88
2023/05/11 06:24:51;;;;;;;5.77;4.27;;;12.30;99.90;;;;;;4998051;28;20211;-88
2023/05/11 06:27:16;;;;;;;4.37;3.47;;;12.40;99.90;;;;;;5013688;28;20232;-88
2023/05/11 06:29:42;;;;;;;4.50;3.70;;;12.30;99.90;;;;;;5009265;28;20217;-88
2023/05/11 06:32:08;;;;;;;5.87;3.60;;;12.30;99.90;;;;;;5002580;28;20196;-87
2023/05/11 06:34:35;;;;;;;4.03;3.63;;;12.40;99.90;;;;;;5012031;28;20231;-88
2023/05/11 06:37:02;;;;;;;5.00;3.87;;;12.60;99.90;;;;;;4991447;28;20673;-87
2023/05/11 06:39:33;;;;;;;4.23;3.83;;;12.50;99.90;;;;;;4991753;28;20253;-89
2023/05/11 06:41:59;;;;;;;5.20;4.27;;;12.50;99.90;;;;;;4996353;28;20243;-87
2023/05/11 06:44:29;;;;;;;4.87;4.17;;;12.40;99.90;;;;;;5013602;28;20196;-88
2023/05/11 06:46:56;;;;;;;4.20;3.90;;;12.40;99.90;;;;;;4995691;28;20200;-87
2023/05/11 06:49:22;;;;;;;4.63;4.07;;;12.40;99.90;;;;;;4992780;28;20281;-90
2023/05/11 06:51:49;;;;;;;5.80;4.17;;;12.60;99.90;;;;;;4988374;28;20817;-88
2023/05/11 06:54:17;;;;;;;4.60;4.20;;;12.80;99.90;;;;;;4993426;28;20654;-88
2023/05/11 06:56:43;;;;;;;6.23;4.03;;;12.80;99.90;;;;;;5012068;28;20196;-88
2023/05/11 06:59:10;;;;;;;4.40;4.03;;;12.70;99.90;;;;;;5009863;28;20570;-87
2023/05/11 07:01:35;;;;;;;4.53;4.13;;;12.90;99.90;;;;;;5013378;28;20177;-87
2023/05/11 07:04:01;;;;;;;4.53;4.23;;;12.90;99.90;;;;;;5014402;28;20177;-87
2023/05/11 07:06:28;;;;;;;4.37;4.07;;;12.80;99.60;;;;;;5014192;28;20565;-88
2023/05/11 07:08:55;;;;;;;4.30;3.90;;;12.80;99.90;;;;;;5012526;28;20204;-88
2023/05/11 07:11:21;;;;;;;4.40;4.00;;;13.00;99.80;;;;;;5013764;28;20236;-88
2023/05/11 07:13:46;;;;;;;4.33;4.03;;;13.10;98.90;;;;;;4996962;28;20186;-87
2023/05/11 07:16:12;;;;;;;4.17;3.87;;;13.10;99.90;;;;;;5012611;28;20242;-88
2023/05/11 07:18:38;;;;;;;4.60;4.20;;;13.30;99.90;;;;;;5009562;28;20792;-87
2023/05/11 07:21:04;;;;;;;4.43;4.10;;;13.40;94.30;;;;;;5012081;28;20190;-87
2023/05/11 07:23:35;;;;;;;4.73;4.30;;;13.50;95.60;;;;;;4993262;28;20201;-87
2023/05/11 07:26:07;;;;;;;4.30;4.00;;;13.50;94.50;;;;;;4994238;28;20214;-89
2023/05/11 07:28:38;;;;;;;4.37;4.00;;;13.50;93.40;;;;;;5009818;28;20293;-88
2023/05/11 07:31:04;;;;;;;4.53;4.00;;;13.60;94.40;;;;;;4995050;28;20178;-88
2023/05/11 07:33:32;;;;;;;4.97;4.47;;;13.50;95.50;;;;;;4994744;28;20193;-89
2023/05/11 07:35:58;;;;;;;5.13;4.73;;;13.70;93.50;;;;;;5010745;28;20237;-87
2023/05/11 07:38:24;;;;;;;5.73;4.03;;;13.40;93.60;;;;;;5012174;28;20203;-88
2023/05/11 07:40:51;;;;;;;4.30;3.90;;;13.50;94.70;;;;;;4995885;28;20210;-88
2023/05/11 07:43:18;;;;;;;4.57;4.27;;;13.50;91.80;;;;;;5011914;28;20275;-88
2023/05/11 07:45:45;;;;;;;4.90;4.60;;;13.50;91.60;;;;;;4991670;28;20274;-88
2023/05/11 07:48:11;;;;;;;4.83;4.23;;;13.40;92.70;;;;;;5020308;28;20243;-88
2023/05/11 07:50:37;;;;;;;5.23;4.73;;;13.40;94.30;;;;;;4993986;28;20198;-88
2023/05/11 07:53:03;;;;;;;4.90;4.50;;;13.50;92.40;;;;;;4995592;28;20186;-88
2023/05/11 07:55:32;;;;;;;4.90;4.50;;;13.50;92.80;;;;;;4991541;28;20187;-89
2023/05/11 07:57:57;;;;;;;6.20;5.10;;;13.70;91.50;;;;;;5002726;28;20205;-87
2023/05/11 08:00:23;;;;;;;5.17;4.77;;;13.80;90.60;;;;;;5013163;28;20183;-90
2023/05/11 08:02:49;;;;;;;5.20;4.60;;;13.60;92.40;;;;;;5013078;28;20189;-87
2023/05/11 08:05:15;;;;;;;4.33;3.97;;;13.60;92.40;;;;;;4995646;28;20184;-88
2023/05/11 08:07:41;;;;;;;4.27;3.87;;;13.70;90.30;;;;;;5013651;28;20731;-87
2023/05/11 08:10:07;;;;;;;6.40;4.80;;;13.70;93.00;;;;;;4995722;28;20201;-87
2023/05/11 08:12:34;;;;;;;4.97;4.63;;;13.80;87.90;;;;;;5012000;28;20640;-87
2023/05/11 08:14:59;;;;;;;5.27;4.77;;;13.80;89.40;;;;;;4996020;28;20188;-86
2023/05/11 08:17:25;;;;;;;5.63;5.00;;;13.70;91.20;;;;;;4994108;28;20814;-88
2023/05/11 08:19:52;;;;;;;5.53;5.10;;;14.10;93.80;;;;;;4999327;28;20580;-86
2023/05/11 08:22:18;;;;;;;5.93;4.87;;;14.00;90.30;;;;;;4990640;28;20198;-87
2023/05/11 08:24:43;;;;;;;5.20;4.80;;;14.00;90.90;;;;;;4999814;28;20189;-87
2023/05/11 08:27:09;;;;;;;5.67;5.20;;;13.90;89.80;;;;;;5012602;28;20194;-88
2023/05/11 08:29:35;;;;;;;5.03;4.63;;;13.70;90.60;;;;;;5012146;28;20183;-87
2023/05/11 08:32:01;;;;;;;4.93;4.63;;;13.60;91.20;;;;;;5010402;28;20205;-88
2023/05/11 08:34:26;;;;;;;4.77;4.37;;;13.70;92.60;;;;;;5012519;28;20187;-87
2023/05/11 08:36:54;;;;;;;4.87;4.47;;;13.90;90.10;;;;;;5012546;28;20187;-87
2023/05/11 08:39:20;;;;;;;6.00;5.40;;;13.90;90.00;;;;;;5011734;28;20193;-88
2023/05/11 08:41:48;;;;;;;5.83;5.33;;;13.90;91.10;;;;;;5010687;28;20187;-87
2023/05/11 08:44:15;;;;;;;5.87;5.47;;;13.80;90.60;;;;;;5004949;28;20192;-88
2023/05/11 08:46:44;;;;;;;9.97;5.50;;;13.90;90.00;;;;;;4992048;28;20279;-88
2023/05/11 08:49:12;;;;;;;5.13;4.63;;;14.00;90.40;;;;;;4990240;28;20243;-87
2023/05/11 08:51:39;;;;;;;4.90;4.60;;;14.00;89.20;;;;;;4993662;28;20190;-86
2023/05/11 08:54:06;;;;;;;4.80;4.43;;;14.00;89.50;;;;;;5011846;28;20199;-87
2023/05/11 08:56:33;;;;;;;5.73;5.23;;;14.10;90.00;;;;;;5018118;28;20194;-87
2023/05/11 08:59:01;;;;;;;5.13;4.73;;;14.40;88.20;;;;;;5018374;28;20217;-87
2023/05/11 09:01:28;;;;;;;4.87;4.57;;;14.70;86.00;;;;;;5018437;28;20193;-87
2023/05/11 09:03:55;;;;;;;5.20;4.80;;;14.80;84.20;;;;;;5019321;28;20182;-87
2023/05/11 09:06:23;;;;;;;6.03;4.87;;;14.80;85.10;;;;;;5000767;28;20293;-87
2023/05/11 09:08:49;;;;;;;6.03;5.20;;;14.70;86.70;;;;;;5018836;28;20235;-87
2023/05/11 09:11:16;;;;;;;5.57;5.13;;;14.60;86.30;;;;;;4999540;28;20192;-89
2023/05/11 09:13:44;;;;;;;7.93;5.50;;;14.70;84.20;;;;;;5002071;28;20188;-87
2023/05/11 09:16:10;;;;;;;5.37;4.80;;;14.90;85.20;;;;;;5015771;28;20204;-88
2023/05/11 09:18:46;;;;;;;5.60;5.20;;;15.10;83.80;;;;;;5009839;28;20294;-88
2023/05/11 09:21:11;;;;;;;6.50;5.90;;;14.90;83.40;;;;;;5013292;28;20189;-87
2023/05/11 09:23:39;;;;;;;6.97;5.33;;;15.00;81.80;;;;;;4998060;28;20186;-86
2023/05/11 09:26:15;;;;;;;5.63;5.10;;;15.10;80.30;;;;;;4999414;28;20289;-88
2023/05/11 09:28:59;;;;;;;6.20;5.60;;;15.00;81.90;;;;;;5015725;28;20298;-88
2023/05/11 09:31:42;;;;;;;6.47;5.87;;;15.10;80.20;;;;;;4999922;28;20192;-87
2023/05/11 09:34:10;;;;;;;6.17;5.67;;;14.90;82.40;;;;;;5019409;28;20190;-88
2023/05/11 09:36:35;;;;;;;5.60;5.20;;;14.90;82.90;;;;;;5000983;28;20658;-87
2023/05/11 09:39:02;;;;;;;7.63;6.30;;;14.90;83.40;;;;;;5015788;28;20222;-88
2023/05/11 09:41:32;;;;;;;7.73;5.63;;;15.10;81.70;;;;;;5015704;28;20189;-87
2023/05/11 09:44:10;;;;;;;5.47;5.07;;;15.00;83.00;;;;;;5019742;28;20186;-88
2023/05/11 09:46:37;;;;;;;5.50;5.00;;;15.30;79.90;;;;;;5003788;28;20205;-87
2023/05/11 09:49:05;;;;;;;5.00;4.57;;;15.40;80.50;;;;;;5003081;28;20666;-88
2023/05/11 09:51:33;;;;;;;5.20;4.80;;;15.60;79.40;;;;;;5001091;28;20200;-87
2023/05/11 09:54:01;;;;;;;6.40;5.10;;;15.70;77.90;;;;;;5017369;28;20198;-87
2023/05/11 09:56:53;;;;;;;5.87;4.90;;;15.80;77.20;;;;;;4999497;28;20733;-86
2023/05/11 09:59:42;;;;;;;5.97;5.47;;;15.90;77.40;;;;;;5000520;28;20234;-87
2023/05/11 10:02:31;;;;;;;5.87;5.37;;;15.70;76.40;;;;;;5006734;28;20217;-87
2023/05/11 10:04:58;;;;;;;4.93;4.60;;;15.60;78.00;;;;;;5000007;28;20177;-86
2023/05/11 10:07:35;;;;;;;6.20;4.87;;;15.70;77.30;;;;;;4997151;28;20217;-87
2023/05/11 10:10:08;;;;;;;6.43;5.83;;;15.90;76.10;;;;;;5016988;28;20177;-88
2023/05/11 10:12:37;;;;;;;5.90;5.40;;;16.00;76.70;;;;;;4998672;28;20654;-89
2023/05/11 10:15:08;;;;;;;5.77;5.27;;;15.80;77.60;;;;;;5010682;28;20185;-88
2023/05/11 10:17:34;;;;;;;5.47;4.93;;;15.90;76.30;;;;;;5030399;28;20215;-88
2023/05/11 10:20:02;;;;;;;5.43;4.97;;;15.90;76.80;;;;;;5031195;28;20172;-88
2023/05/11 10:22:28;;;;;;;5.80;5.30;;;16.00;75.30;;;;;;5021199;28;20192;-87
2023/05/11 10:24:58;;;;;;;7.63;5.53;;;15.90;75.30;;;;;;5018383;28;20217;-86
2023/05/11 10:27:25;;;;;;;5.83;5.27;;;16.00;75.30;;;;;;5015286;28;20233;-87
2023/05/11 10:29:51;;;;;;;5.20;4.90;;;16.20;75.10;;;;;;5017298;28;20260;-88
2023/05/11 10:32:18;;;;;;;5.67;5.17;;;16.00;73.20;;;;;;5017982;28;20592;-87
2023/05/11 10:34:46;;;;;;;6.10;5.50;;;16.00;76.40;;;;;;5017443;28;20269;-88
2023/05/11 10:37:14;;;;;;;5.00;4.63;;;16.30;75.30;;;;;;5018078;28;20955;-87
2023/05/11 10:39:41;;;;;;;6.07;5.50;;;16.40;74.30;;;;;;5017671;28;20187;-88
2023/05/11 10:42:25;;;;;;;5.70;5.27;;;16.50;74.50;;;;;;5016612;28;20199;-87
2023/05/11 10:45:13;;;;;;;6.10;5.60;;;16.30;74.00;;;;;;5003631;28;20258;-89
2023/05/11 10:47:41;;;;;;;5.77;5.27;;;15.90;77.10;;;;;;4995711;28;20221;-87
2023/05/11 10:50:35;;;;;;;5.73;5.23;;;16.30;74.50;;;;;;4984543;28;20222;-88
2023/05/11 10:53:24;;;;;;;6.23;5.73;;;16.70;73.20;;;;;;5000663;28;20176;-87
2023/05/11 10:55:56;;;;;;;6.40;5.80;;;16.40;75.30;;;;;;5016864;28;20183;-87
2023/05/11 10:58:48;;;;;;;5.60;5.10;;;16.30;74.20;;;;;;5017925;28;20254;-85
2023/05/11 11:01:22;;;;;;;5.60;5.20;;;16.40;74.10;;;;;;4984412;28;20200;-86
2023/05/11 11:04:00;;;;;;;6.77;6.17;;;16.50;74.30;;;;;;4999939;28;20183;-86
2023/05/11 11:06:28;;;;;;;5.83;5.43;;;16.30;74.60;;;;;;5017597;28;20211;-87
2023/05/11 11:08:58;;;;;;;6.20;5.57;;;16.60;75.10;;;;;;5016474;28;20296;-87
2023/05/11 11:11:45;;;;;;;6.40;5.80;;;16.70;70.60;;;;;;5014583;28;20192;-88
2023/05/11 11:14:15;;;;;;;5.90;5.40;;;16.70;70.70;;;;;;4996643;28;20207;-86
2023/05/11 11:17:22;;;;;;;5.83;5.40;;;16.40;73.10;;;;;;5013059;28;20180;-86
2023/05/11 11:19:47;;;;;;;5.83;5.33;;;16.80;71.10;;;;;;5015490;28;20184;-86
2023/05/11 11:22:37;;;;;;;6.37;5.27;;;16.90;70.90;;;;;;5015998;28;20187;-87
2023/05/11 11:25:04;;;;;;;6.20;5.70;;;17.10;71.10;;;;;;5000341;28;20184;-90
2023/05/11 11:27:51;;;;;;;6.03;5.60;;;17.00;70.40;;;;;;5018668;28;20254;-88
2023/05/11 11:30:22;;;;;;;6.90;6.07;;;16.90;71.90;;;;;;5010072;28;20218;-88
2023/05/11 11:32:50;;;;;;;5.97;5.57;;;16.80;70.70;;;;;;5015259;28;20176;-89
2023/05/11 11:35:55;;;;;;;6.90;6.30;;;16.50;72.30;;;;;;5015688;28;20220;-90
2023/05/11 11:38:20;;;;;;;6.77;6.27;;;16.50;71.50;;;;;;4937908;29;20199;-88
2023/05/11 11:40:53;;;;;;;6.05;5.32;;;16.60;72.20;;;;;;4941273;29;20198;-88
2023/05/11 11:43:27;;;;;;;7.45;5.72;;;17.00;72.20;;;;;;4989117;28;20200;-89
2023/05/11 11:46:01;;;;;;;6.45;5.85;;;17.10;70.40;;;;;;5019217;28;20190;-89
2023/05/11 11:48:34;;;;;;;6.60;6.10;;;17.00;70.90;;;;;;5018854;28;20763;-88
2023/05/11 11:51:05;;;;;;;6.63;6.13;;;17.00;70.20;;;;;;5015498;28;20179;-88
2023/05/11 11:53:42;;;;;;;7.85;7.05;;;17.30;68.80;;;;;;5017851;28;20808;-90
2023/05/11 11:56:28;;;;;;;7.78;7.18;;;17.40;69.10;;;;;;4997561;28;20250;-88
2023/05/11 11:59:04;;;;;;;8.10;7.35;;;17.50;67.80;;;;;;4992046;28;20209;-89
2023/05/11 12:01:36;;;;;;;8.85;6.50;;;17.80;67.10;;;;;;4999008;28;20188;-89
2023/05/11 12:04:04;;;;;;;7.30;6.60;;;17.70;69.20;;;;;;5017191;28;20169;-90
2023/05/11 12:06:39;;;;;;;8.63;6.50;;;17.90;67.70;;;;;;5015760;28;20198;-90
2023/05/11 12:09:06;;;;;;;7.45;6.85;;;17.90;66.70;;;;;;4995784;28;20203;-89
2023/05/11 12:11:33;;;;;;;7.25;6.65;;;17.60;65.60;;;;;;5013827;28;20187;-91
2023/05/11 12:14:03;;;;;;;7.97;7.18;;;17.90;66.70;;;;;;4978515;28;20178;-91
2023/05/11 12:16:28;;;;;;;192.68;112.35;;;17.70;67.40;;;;;;4994476;28;20216;-90
2023/05/11 12:18:56;;;;;;;13.73;12.43;;;18.30;64.30;;;;;;5013823;28;20308;-91
2023/05/11 12:21:49;;;;;;;676.50;397.33;;;18.40;63.40;;;;;;5015396;28;20186;-90
2023/05/11 12:24:26;;;;;;;23.95;20.13;;;19.20;62.70;;;;;;4980531;28;20175;-89
2023/05/11 12:27:18;;;;;;;7.20;6.70;;;19.20;60.90;;;;;;4997276;28;20198;-89
2023/05/11 12:29:49;;;;;;;7.38;6.80;;;18.00;63.40;;;;;;4996969;28;20189;-91
2023/05/11 12:32:23;;;;;;;6.47;5.45;;;17.80;64.10;;;;;;5001331;28;20775;-89
2023/05/11 12:35:03;;;;;;;6.40;5.85;;;17.90;64.40;;;;;;4997008;28;20181;-91
2023/05/11 12:37:33;;;;;;;6.35;5.75;;;18.20;63.90;;;;;;5013186;28;20202;-91
2023/05/11 12:39:58;;;;;;;6.63;5.97;;;18.20;62.40;;;;;;5015402;28;20208;-90
2023/05/11 12:42:32;;;;;;;6.65;6.15;;;17.70;63.80;;;;;;5012441;28;20188;-89
2023/05/11 12:45:09;;;;;;;7.28;6.20;;;17.40;64.90;;;;;;5013150;28;20178;-91
2023/05/11 12:47:41;;;;;;;6.72;5.60;;;17.20;66.70;;;;;;5011972;28;20223;-90
2023/05/11 12:50:27;;;;;;;6.43;5.90;;;17.20;65.70;;;;;;4995098;28;20195;-89
2023/05/11 12:52:53;;;;;;;6.25;5.80;;;17.70;65.40;;;;;;5012344;28;20690;-90
2023/05/11 12:55:29;;;;;;;6.50;6.00;;;17.90;64.10;;;;;;5012320;28;20268;-89
2023/05/11 12:58:15;;;;;;;6.45;6.00;;;18.40;63.90;;;;;;4994891;28;20496;-90
2023/05/11 13:00:56;;;;;;;5.68;5.28;;;18.70;61.70;;;;;;4993488;28;20180;-88
2023/05/11 13:03:32;;;;;;;5.82;5.32;;;18.90;60.50;;;;;;5009876;28;20190;-90
2023/05/11 13:06:12;;;;;;;6.22;5.82;;;19.20;59.20;;;;;;4991662;28;20228;-90
2023/05/11 13:08:39;;;;;;;7.03;6.43;;;19.10;59.70;;;;;;4992420;28;20205;-88
2023/05/11 13:11:21;;;;;;;6.35;5.85;;;19.10;59.90;;;;;;5011313;28;20286;-89
2023/05/11 13:13:52;;;;;;;5.97;5.32;;;19.10;59.50;;;;;;5011336;28;20184;-89
2023/05/11 13:16:27;;;;;;;5.38;4.88;;;19.00;58.80;;;;;;5013218;28;20218;-89
2023/05/11 13:19:01;;;;;;;4.80;4.40;;;19.20;58.30;;;;;;5011888;28;20193;-90
2023/05/11 13:21:28;;;;;;;5.10;4.70;;;19.40;53.10;;;;;;5011468;28;20471;-89
2023/05/11 13:23:54;;;;;;;4.88;4.57;;;19.60;53.50;;;;;;5014192;28;20182;-89
2023/05/11 13:26:29;;;;;;;4.88;4.47;;;19.70;53.80;;;;;;5012352;28;20218;-93
2023/05/11 13:28:55;;;;;;;5.28;4.82;;;19.80;52.60;;;;;;4992850;28;20201;-89
2023/05/11 13:31:21;;;;;;;5.95;5.45;;;19.90;53.40;;;;;;4991829;28;20188;-87
2023/05/11 13:33:51;;;;;;;4.63;4.22;;;19.80;54.30;;;;;;4991961;28;20188;-87
2023/05/11 13:36:17;;;;;;;5.05;4.65;;;19.90;52.40;;;;;;4990460;28;20209;-88
2023/05/11 13:38:43;;;;;;;5.03;4.55;;;19.40;51.70;;;;;;4990305;28;20205;-88